Time;durP1;ratioP1;P1;durP2;ratioP2;P2;SDS_P1;SDS_P2;PMS_P1;PMS_P2;Temp;Humidity;BMP_temperature;BMP_pressure;BME280_temperature;BME280_humidity;BME280_pressure;Samples;Min_cycle;Max_cycle;Signal;HPM_P1;HPM_P2
2022/07/01 00:03:30;;;;;;;10.85;4.85;;;;;;;20.44;49.57;101544.31;10472975;28;20045;-81
2022/07/01 00:08:32;;;;;;;9.55;4.65;;;;;;;20.36;49.50;101543.16;10491006;28;20036;-81
2022/07/01 00:13:34;;;;;;;9.32;5.20;;;;;;;20.37;49.84;101541.19;10506665;28;20044;-81
2022/07/01 00:18:36;;;;;;;15.73;6.35;;;;;;;20.34;51.09;101534.28;10530614;28;20138;-82
2022/07/01 00:23:39;;;;;;;9.95;5.93;;;;;;;20.38;50.33;101540.84;10531801;28;20044;-82
2022/07/01 00:28:41;;;;;;;8.30;5.63;;;;;;;20.37;50.05;101532.81;10515327;28;20036;-82
2022/07/01 00:33:44;;;;;;;11.80;5.13;;;;;;;20.31;50.13;101523.81;10488065;28;20057;-82
2022/07/01 00:38:46;;;;;;;9.60;5.53;;;;;;;20.32;51.87;101532.97;10491856;28;20040;-81
2022/07/01 00:43:48;;;;;;;13.07;5.95;;;;;;;20.27;52.09;101536.72;10489259;28;20048;-81
2022/07/01 00:48:51;;;;;;;12.20;5.38;;;;;;;20.24;50.20;101540.16;10473639;28;20060;-81
2022/07/01 00:53:58;;;;;;;6.18;4.22;;;;;;;20.26;49.77;101537.03;10481956;28;20041;-81
2022/07/01 00:59:01;;;;;;;14.52;5.07;;;;;;;20.26;50.73;101542.63;10493021;28;20045;-81
2022/07/01 01:04:03;;;;;;;8.35;4.63;;;;;;;20.21;50.89;101542.78;10489690;28;20052;-81
2022/07/01 01:09:06;;;;;;;6.78;3.85;;;;;;;20.14;48.56;101546.06;10516114;28;20043;-81
2022/07/01 01:14:08;;;;;;;9.55;4.40;;;;;;;20.10;49.01;101545.84;10528863;28;20044;-81
2022/07/01 01:19:11;;;;;;;11.27;4.70;;;;;;;20.14;49.18;101543.28;10517322;28;20036;-81
2022/07/01 01:24:13;;;;;;;8.18;4.32;;;;;;;20.17;49.80;101549.00;10431100;28;20052;-81
2022/07/01 01:29:16;;;;;;;11.95;4.40;;;;;;;20.18;49.57;101550.66;10488034;28;20048;-82
2022/07/01 01:34:18;;;;;;;9.18;4.45;;;;;;;20.11;50.01;101544.72;10488194;28;20566;-82
2022/07/01 01:39:21;;;;;;;5.05;3.97;;;;;;;20.10;48.84;101545.03;10500443;28;20515;-82
2022/07/01 01:44:24;;;;;;;7.75;5.10;;;;;;;20.13;50.73;101545.25;10528058;28;20052;-81
2022/07/01 01:49:27;;;;;;;10.70;4.70;;;;;;;20.18;50.05;101547.03;10491420;28;20049;-81
2022/07/01 01:54:36;;;;;;;7.88;4.82;;;;;;;20.18;50.33;101550.66;10445026;28;20049;-81
2022/07/01 01:59:39;;;;;;;6.47;4.68;;;;;;;20.23;51.08;101546.88;10458103;28;20045;-81
2022/07/01 02:04:41;;;;;;;7.93;4.68;;;;;;;20.45;52.23;101551.53;10472549;28;20045;-82
2022/07/01 02:09:43;;;;;;;8.13;4.85;;;;;;;20.67;51.72;101550.59;10443679;28;20507;-81
2022/07/01 02:14:46;;;;;;;7.90;4.80;;;;;;;20.87;53.24;101549.94;10488165;28;20044;-81
2022/07/01 02:19:48;;;;;;;10.93;5.13;;;;;;;21.02;54.29;101554.22;10498089;28;20051;-81
2022/07/01 02:24:51;;;;;;;9.30;5.28;;;;;;;21.11;53.54;101552.22;10469202;28;20084;-82
2022/07/01 02:29:53;;;;;;;12.35;4.70;;;;;;;21.15;51.09;101557.94;10487114;28;20041;-82
2022/07/01 02:34:56;;;;;;;4.57;3.75;;;;;;;21.19;49.22;101565.34;10485785;28;20443;-83
2022/07/01 02:39:59;;;;;;;5.90;3.28;;;;;;;21.26;48.80;101562.09;10484943;28;20060;-82
2022/07/01 02:45:03;;;;;;;9.38;3.13;;;;;;;21.51;46.93;101563.97;10485994;28;20040;-81
2022/07/01 02:50:08;;;;;;;3.65;2.70;;;;;;;21.71;45.21;101561.66;10487065;28;20052;-83
2022/07/01 02:55:11;;;;;;;4.03;2.67;;;;;;;22.02;44.93;101569.72;10487056;28;20037;-82
2022/07/01 03:00:14;;;;;;;2.50;2.00;;;;;;;22.26;44.04;101579.16;10466018;28;20045;-81
2022/07/01 03:05:16;;;;;;;3.60;2.42;;;;;;;22.59;44.65;101580.47;10483187;28;20051;-84
2022/07/01 03:10:18;;;;;;;4.07;2.30;;;;;;;22.77;44.27;101573.56;10483061;28;20041;-82
2022/07/01 03:15:20;;;;;;;2.47;2.28;;;;;;;23.10;42.61;101580.06;10464976;28;20035;-84
2022/07/01 03:20:23;;;;;;;2.92;2.20;;;;;;;23.29;42.68;101585.16;10483402;28;20045;-84
2022/07/01 03:25:25;;;;;;;3.38;2.22;;;;;;;23.42;41.46;101588.81;10489517;28;20052;-82
2022/07/01 03:30:27;;;;;;;4.28;2.00;;;;;;;23.70;41.31;101578.66;10490448;28;20060;-82
2022/07/01 03:35:35;;;;;;;3.50;2.20;;;;;;;23.96;40.75;101574.72;10452261;28;20036;-83
2022/07/01 03:40:38;;;;;;;3.55;2.20;;;;;;;24.36;39.42;101577.66;10490391;28;20045;-84
2022/07/01 03:45:40;;;;;;;3.97;1.98;;;;;;;24.63;39.48;101592.94;10489110;28;20415;-82
2022/07/01 03:50:43;;;;;;;4.78;2.28;;;;;;;24.88;39.44;101583.28;10500829;28;20041;-82
2022/07/01 03:55:45;;;;;;;3.25;2.25;;;;;;;25.33;39.34;101585.00;10462714;28;20419;-82
2022/07/01 04:00:48;;;;;;;2.53;1.95;;;;;;;25.57;38.52;101589.69;10491406;28;20053;-82
2022/07/01 04:05:50;;;;;;;4.80;2.10;;;;;;;25.69;39.04;101589.66;10489811;28;20423;-82
2022/07/01 04:10:54;;;;;;;1.98;1.77;;;;;;;25.84;38.50;101580.38;10490358;28;20590;-82
2022/07/01 04:15:57;;;;;;;4.32;2.40;;;;;;;26.00;38.00;101582.38;10456217;28;20040;-83
2022/07/01 04:26:20;;;;;;;4.93;2.10;;;;;;;26.63;36.70;101582.31;10490304;28;20419;-82
2022/07/01 04:31:23;;;;;;;3.38;2.33;;;;;;;27.04;36.87;101578.00;10464139;28;20040;-82
2022/07/01 04:36:26;;;;;;;4.30;2.25;;;;;;;27.36;37.57;101575.03;10413774;28;20041;-81
2022/07/01 04:46:49;;;;;;;3.95;2.00;;;;;;;27.76;35.74;101578.22;10470447;28;20052;-81
2022/07/01 04:51:51;;;;;;;3.95;2.00;;;;;;;27.80;34.65;101584.75;10430212;28;20416;-81
2022/07/01 04:56:54;;;;;;;3.58;1.83;;;;;;;28.02;32.36;101585.13;10432741;28;20061;-80
2022/07/01 05:01:58;;;;;;;4.15;1.92;;;;;;;28.26;32.85;101583.91;10483033;28;20057;-81
2022/07/01 05:07:00;;;;;;;2.70;2.03;;;;;;;28.51;32.93;101594.41;10488589;28;20419;-81
2022/07/01 05:12:03;;;;;;;3.78;2.25;;;;;;;28.88;33.60;101596.56;10488222;28;20049;-81
2022/07/01 05:17:05;;;;;;;5.05;1.90;;;;;;;29.00;32.53;101596.34;10487926;28;20053;-81
2022/07/01 05:22:07;;;;;;;4.20;2.03;;;;;;;29.28;33.85;101592.22;10494897;28;20038;-81
2022/07/01 05:27:09;;;;;;;2.67;2.03;;;;;;;29.60;32.37;101578.47;10438293;28;20041;-81
2022/07/01 05:32:11;;;;;;;3.03;2.08;;;;;;;29.73;32.53;101581.81;10440157;28;20045;-82
2022/07/01 05:37:16;;;;;;;4.68;1.90;;;;;;;29.84;31.80;101585.56;10445031;28;20060;-81
2022/07/01 05:42:18;;;;;;;3.13;1.88;;;;;;;30.00;32.09;101586.09;10484640;28;20056;-81
2022/07/01 05:47:21;;;;;;;2.85;2.13;;;;;;;29.97;31.41;101578.41;10453809;28;20045;-82
2022/07/01 05:52:23;;;;;;;2.42;1.55;;;;;;;30.17;31.68;101576.97;10445227;28;20049;-81
2022/07/01 05:57:25;;;;;;;2.72;1.58;;;;;;;30.47;31.40;101570.31;10486086;28;20610;-81
2022/07/01 06:02:27;;;;;;;3.67;2.03;;;;;;;30.54;30.66;101584.50;10486314;28;20060;-81
2022/07/01 06:07:30;;;;;;;3.08;2.22;;;;;;;30.38;31.22;101586.84;10486636;28;20041;-81
2022/07/01 06:12:32;;;;;;;2.63;1.77;;;;;;;30.69;30.67;101585.44;10486049;28;20056;-82
2022/07/01 06:17:35;;;;;;;5.72;2.08;;;;;;;31.09;30.17;101578.75;10486289;28;20041;-81
2022/07/01 06:22:38;;;;;;;3.42;1.77;;;;;;;31.20;30.16;101579.63;10486246;28;20041;-81
2022/07/01 06:27:44;;;;;;;1.95;1.67;;;;;;;31.45;30.15;101574.84;10485937;28;20415;-81
2022/07/01 06:32:46;;;;;;;5.82;2.03;;;;;;;31.57;29.85;101587.81;10485755;28;20033;-81
2022/07/01 06:37:48;;;;;;;3.83;2.17;;;;;;;31.48;30.14;101578.91;10484844;28;20045;-82
2022/07/01 06:42:50;;;;;;;7.30;2.70;;;;;;;31.48;30.12;101579.72;10483659;28;20048;-82
2022/07/01 06:47:53;;;;;;;3.95;1.85;;;;;;;31.91;29.46;101568.41;10485389;28;20049;-82
2022/07/01 06:52:55;;;;;;;6.07;2.30;;;;;;;32.09;29.01;101572.06;10482579;28;20041;-82
2022/07/01 06:58:01;;;;;;;5.18;2.13;;;;;;;31.97;29.23;101575.34;10490750;28;20048;-81
2022/07/01 07:03:04;;;;;;;6.07;2.97;;;;;;;32.03;29.40;101565.19;10494126;28;20049;-82
2022/07/01 07:08:07;;;;;;;7.43;2.72;;;;;;;32.18;29.49;101565.19;10492120;28;20044;-82
2022/07/01 07:13:09;;;;;;;6.00;2.28;;;;;;;32.12;29.23;101563.97;10492908;28;20537;-82
2022/07/01 07:18:12;;;;;;;3.20;2.17;;;;;;;32.23;29.74;101567.59;10462025;28;20056;-82
2022/07/01 07:23:15;;;;;;;6.18;2.40;;;;;;;32.85;29.42;101561.41;10470440;28;20037;-82
2022/07/01 07:28:18;;;;;;;6.70;2.50;;;;;;;32.94;29.10;101547.56;10474893;28;20045;-82
2022/07/01 07:33:21;;;;;;;4.35;2.45;;;;;;;33.42;29.14;101556.25;10492400;28;20044;-82
2022/07/01 07:38:23;;;;;;;7.68;3.20;;;;;;;33.49;28.43;101549.69;10492051;28;20057;-82
2022/07/01 07:43:26;;;;;;;3.03;2.75;;;;;;;33.28;29.04;101548.59;10491535;28;20044;-82
2022/07/01 07:48:29;;;;;;;6.30;2.65;;;;;;;33.46;28.96;101531.44;10478296;28;20041;-82
2022/07/01 07:53:31;;;;;;;3.50;2.90;;;;;;;33.72;27.98;101540.59;10475767;28;20566;-81
2022/07/01 07:58:41;;;;;;;4.88;2.75;;;;;;;33.46;28.21;101537.13;10473720;28;20053;-79
2022/07/01 08:03:45;;;;;;;5.15;2.58;;;;;;;33.47;28.69;101544.44;10490900;28;20044;-82
2022/07/01 08:08:47;;;;;;;6.00;2.85;;;;;;;33.45;28.57;101546.06;10489480;28;20037;-82
2022/07/01 08:13:49;;;;;;;4.05;2.80;;;;;;;33.73;27.99;101553.63;10491041;28;20044;-83
2022/07/01 08:18:51;;;;;;;3.47;2.55;;;;;;;33.56;28.22;101546.81;10490550;28;20415;-82
2022/07/01 08:23:55;;;;;;;9.70;3.72;;;;;;;33.77;27.46;101532.41;10485568;28;20055;-81
2022/07/01 08:28:57;;;;;;;2.90;2.70;;;;;;;33.36;28.02;101534.38;10490003;28;20037;-81
2022/07/01 08:34:02;;;;;;;5.40;3.75;;;;;;;32.88;28.97;101518.75;10482333;28;20040;-81
2022/07/01 08:39:04;;;;;;;3.15;2.85;;;;;;;33.48;28.42;101523.28;10488493;28;20049;-81
2022/07/01 08:44:06;;;;;;;5.43;2.65;;;;;;;33.59;27.77;101517.53;10504489;28;20056;-82
2022/07/01 08:49:09;;;;;;;3.03;2.72;;;;;;;33.64;28.26;101519.91;10471803;28;20041;-78
2022/07/01 08:54:12;;;;;;;4.15;3.10;;;;;;;33.98;28.03;101522.09;10484424;28;20041;-77
2022/07/01 08:59:24;;;;;;;5.13;3.05;;;;;;;33.79;28.31;101515.72;10471022;28;20491;-79
2022/07/01 09:04:30;;;;;;;3.80;2.73;;;;;;;33.89;28.07;101518.94;10471294;28;20037;-77
2022/07/01 09:09:37;;;;;;;2.88;2.58;;;;;;;33.94;28.13;101518.47;10469438;28;20060;-77
2022/07/01 09:14:41;;;;;;;5.07;3.03;;;;;;;33.66;28.17;101505.25;10485663;28;20053;-77
2022/07/01 09:19:48;;;;;;;4.50;3.35;;;;;;;33.73;27.04;101505.22;10457778;28;20064;-79
2022/07/01 09:24:51;;;;;;;3.65;3.08;;;;;;;33.15;28.48;101501.13;10477842;28;20053;-78
2022/07/01 09:29:54;;;;;;;4.20;3.40;;;;;;;32.89;27.90;101491.94;10481341;28;20064;-79
2022/07/01 09:34:57;;;;;;;6.63;4.10;;;;;;;32.55;28.50;101500.19;10487127;28;20037;-78
2022/07/01 09:39:59;;;;;;;6.88;4.47;;;;;;;31.95;29.09;101501.13;10472412;28;20045;-79
2022/07/01 09:45:07;;;;;;;5.45;4.70;;;;;;;31.66;29.83;101494.59;10477463;28;20052;-76
2022/07/01 09:50:10;;;;;;;5.57;5.00;;;;;;;31.34;30.46;101508.75;10459058;28;20041;-74
2022/07/01 09:55:17;;;;;;;5.40;4.60;;;;;;;30.92;31.68;101505.81;10486641;28;20496;-78
2022/07/01 10:00:20;;;;;;;5.70;4.68;;;;;;;30.58;32.56;101501.19;10469119;28;20044;-77
2022/07/01 10:05:24;;;;;;;7.45;5.53;;;;;;;30.57;32.43;101493.09;10469160;28;20523;-76
2022/07/01 10:10:32;;;;;;;5.95;4.63;;;;;;;30.33;33.05;101491.72;10487128;28;20037;-76
2022/07/01 10:15:36;;;;;;;5.40;4.13;;;;;;;30.30;33.63;101495.34;10477627;28;20044;-79
2022/07/01 10:20:40;;;;;;;4.53;4.10;;;;;;;30.20;33.85;101496.09;10459043;28;20033;-81
2022/07/01 10:25:44;;;;;;;6.30;3.97;;;;;;;30.19;33.94;101486.78;10472666;28;20037;-78
2022/07/01 10:31:03;;;;;;;6.15;2.78;;;;;;;30.07;34.57;101501.28;10486558;28;20047;-79
2022/07/01 10:36:25;;;;;;;5.82;4.40;;;;;;;29.88;34.38;101493.03;10494254;28;20037;-79
2022/07/01 10:41:34;;;;;;;4.68;4.15;;;;;;;29.80;33.92;101500.63;10459362;28;20449;-78
2022/07/01 10:46:45;;;;;;;6.60;3.70;;;;;;;29.74;33.83;101504.22;10493840;28;20419;-78
2022/07/01 10:51:52;;;;;;;4.50;3.92;;;;;;;29.84;33.98;101515.63;10476225;28;20045;-78
2022/07/01 10:56:55;;;;;;;5.68;4.30;;;;;;;29.84;34.42;101509.16;10493594;28;20132;-78
2022/07/01 11:01:57;;;;;;;4.75;4.05;;;;;;;29.84;34.47;101500.66;10459289;28;20037;-77
2022/07/01 11:06:59;;;;;;;4.35;3.63;;;;;;;29.79;34.95;101509.53;10483160;28;20059;-76
2022/07/01 11:12:02;;;;;;;4.07;3.67;;;;;;;29.66;35.18;101514.66;10480947;28;20041;-78
2022/07/01 11:17:05;;;;;;;4.05;3.60;;;;;;;29.67;35.92;101521.94;10491793;28;20037;-78
2022/07/01 11:22:08;;;;;;;4.82;3.70;;;;;;;29.72;35.60;101524.44;10473620;28;20049;-79
2022/07/01 11:27:10;;;;;;;4.68;3.20;;;;;;;29.67;35.43;101525.59;10487245;28;20049;-78
2022/07/01 11:32:26;;;;;;;4.88;4.30;;;;;;;29.60;35.98;101525.53;10449231;28;20064;-75
2022/07/01 11:42:50;;;;;;;4.82;4.32;;;;;;;29.48;36.58;101517.31;10489013;28;20048;-78
2022/07/01 11:47:53;;;;;;;5.65;4.63;;;;;;;29.47;36.74;101504.38;10481930;28;20522;-78
2022/07/01 11:52:56;;;;;;;5.28;3.88;;;;;;;29.40;36.78;101507.13;10489823;28;20053;-78
2022/07/01 11:57:58;;;;;;;6.70;4.85;;;;;;;29.35;36.97;101499.81;10491714;28;20526;-78
2022/07/01 12:03:00;;;;;;;5.35;4.55;;;;;;;29.24;36.56;101490.41;10473038;28;20048;-77
2022/07/01 12:08:03;;;;;;;7.10;4.40;;;;;;;29.17;36.70;101509.31;10473020;28;20037;-78
2022/07/01 12:13:34;;;;;;;6.20;4.85;;;;;;;29.10;37.95;101505.19;10452712;28;20877;-77
2022/07/01 12:18:37;;;;;;;8.05;5.72;;;;;;;29.10;37.68;101499.53;10483390;28;20055;-78
2022/07/01 12:23:39;;;;;;;5.53;5.00;;;;;;;29.14;37.16;101496.75;10482944;28;20197;-75
2022/07/01 12:28:41;;;;;;;5.88;5.28;;;;;;;29.14;37.99;101505.22;10472614;28;20504;-77
2022/07/01 12:33:51;;;;;;;5.22;4.72;;;;;;;29.15;37.27;101500.41;10486687;28;20053;-77
2022/07/01 12:39:06;;;;;;;4.97;4.47;;;;;;;29.08;37.00;101504.78;10480755;28;20439;-77
2022/07/01 12:44:22;;;;;;;4.95;4.40;;;;;;;29.10;38.25;101510.84;10485212;28;20048;-81
2022/07/01 12:49:25;;;;;;;6.85;4.35;;;;;;;29.09;36.67;101499.94;10478236;28;20508;-80
2022/07/01 12:54:36;;;;;;;6.55;4.40;;;;;;;29.10;36.41;101499.53;10487465;28;20052;-79
2022/07/01 12:59:38;;;;;;;5.28;4.43;;;;;;;29.16;36.84;101508.50;10473068;28;20048;-79
2022/07/01 13:04:40;;;;;;;5.13;4.63;;;;;;;29.21;36.04;101499.66;10474378;28;20041;-77
2022/07/01 13:09:43;;;;;;;5.20;4.50;;;;;;;29.22;35.96;101494.84;10484246;28;20535;-79
2022/07/01 13:14:45;;;;;;;4.72;4.10;;;;;;;29.22;35.50;101517.44;10473260;28;20431;-80
2022/07/01 13:19:48;;;;;;;4.95;4.53;;;;;;;29.19;36.18;101492.78;10462666;28;20033;-81
2022/07/01 13:24:51;;;;;;;4.82;4.32;;;;;;;29.24;35.28;101500.91;10465622;28;20056;-79
2022/07/01 13:29:53;;;;;;;4.30;3.90;;;;;;;29.18;34.65;101508.13;10477176;28;20045;-82
2022/07/01 13:34:56;;;;;;;4.80;3.60;;;;;;;29.10;35.39;101498.75;10454648;28;20593;-75
2022/07/01 13:39:58;;;;;;;4.97;3.90;;;;;;;29.00;34.74;101505.91;10477668;28;20049;-75
2022/07/01 13:45:01;;;;;;;5.13;4.10;;;;;;;28.90;34.76;101489.63;10466370;28;20508;-76
2022/07/01 13:50:03;;;;;;;6.05;4.28;;;;;;;28.88;35.03;101497.69;10459529;28;20056;-76
2022/07/01 13:55:06;;;;;;;4.90;3.28;;;;;;;28.92;35.22;101503.38;10482704;28;20053;-75
2022/07/01 14:00:09;;;;;;;5.55;4.40;;;;;;;28.95;35.87;101494.94;10481507;28;20048;-75
2022/07/01 14:05:12;;;;;;;5.30;3.97;;;;;;;28.90;35.48;101483.16;10484144;28;20550;-73
2022/07/01 14:10:15;;;;;;;5.70;4.03;;;;;;;28.86;35.71;101483.13;10467282;28;20064;-73
2022/07/01 14:15:18;;;;;;;4.30;3.72;;;;;;;28.83;35.83;101484.69;10479383;28;20045;-76
2022/07/01 14:20:20;;;;;;;3.83;3.15;;;;;;;28.80;36.05;101473.31;10501163;28;20418;-77
2022/07/01 14:25:22;;;;;;;3.95;3.55;;;;;;;28.80;35.87;101484.63;10496425;28;20048;-76
2022/07/01 14:30:25;;;;;;;4.63;3.70;;;;;;;28.72;35.82;101491.41;10483119;28;20048;-77
2022/07/01 14:35:28;;;;;;;4.68;3.97;;;;;;;28.63;35.87;101477.56;10457360;28;20056;-75
2022/07/01 14:40:32;;;;;;;4.70;3.75;;;;;;;28.59;35.67;101490.84;10474266;28;20041;-75
2022/07/01 14:45:34;;;;;;;4.03;3.63;;;;;;;28.50;36.21;101485.50;10476960;28;20475;-73
2022/07/01 14:50:36;;;;;;;5.75;3.50;;;;;;;28.46;35.51;101480.97;10473034;28;20052;-74
2022/07/01 14:55:39;;;;;;;3.88;3.30;;;;;;;28.42;36.17;101480.13;10477072;28;20033;-73
2022/07/01 15:00:42;;;;;;;4.00;3.58;;;;;;;28.35;36.29;101483.66;10479638;28;20052;-74
2022/07/01 15:05:45;;;;;;;3.55;3.17;;;;;;;28.36;37.27;101470.38;10461433;28;20052;-75
2022/07/01 15:10:48;;;;;;;4.88;3.67;;;;;;;28.37;37.26;101478.44;10477277;28;20083;-74
2022/07/01 15:15:51;;;;;;;4.07;3.30;;;;;;;28.38;36.82;101482.91;10462473;28;20053;-75
2022/07/01 15:20:53;;;;;;;4.45;3.47;;;;;;;28.31;36.68;101476.34;10470749;28;20033;-76
2022/07/01 15:25:56;;;;;;;4.30;3.60;;;;;;;28.25;38.02;101470.16;10485111;28;20053;-77
2022/07/01 15:30:59;;;;;;;5.90;3.55;;;;;;;28.20;37.10;101476.16;10486424;28;20171;-76
2022/07/01 15:36:01;;;;;;;4.18;3.72;;;;;;;28.10;37.59;101473.97;10483689;28;20040;-77
2022/07/01 15:41:03;;;;;;;5.35;3.65;;;;;;;28.04;37.80;101478.34;10477698;28;20056;-75
2022/07/01 15:46:09;;;;;;;3.50;3.20;;;;;;;27.98;37.89;101477.03;10451070;28;20454;-75
2022/07/01 15:51:11;;;;;;;3.28;2.95;;;;;;;27.93;37.88;101476.16;10485264;28;20052;-75
2022/07/01 15:56:19;;;;;;;3.72;2.90;;;;;;;27.91;37.81;101474.91;10477349;28;20067;-76
2022/07/01 16:01:21;;;;;;;4.88;3.20;;;;;;;27.86;36.74;101475.25;10482361;28;20435;-74
2022/07/01 16:06:24;;;;;;;2.97;2.63;;;;;;;27.80;36.54;101465.50;10487365;28;20037;-76
2022/07/01 16:11:27;;;;;;;3.70;3.08;;;;;;;27.72;36.44;101466.56;10484405;28;20052;-72
2022/07/01 16:16:35;;;;;;;3.58;3.13;;;;;;;27.67;36.86;101464.06;10469555;28;20051;-73
2022/07/01 16:21:38;;;;;;;3.70;3.10;;;;;;;27.60;36.68;101459.09;10480226;28;20423;-74
2022/07/01 16:26:41;;;;;;;5.78;3.22;;;;;;;27.57;36.47;101465.47;10463023;28;20048;-76
2022/07/01 16:31:44;;;;;;;4.43;3.17;;;;;;;27.53;36.57;101465.41;10477242;28;20044;-74
2022/07/01 16:36:51;;;;;;;2.85;2.65;;;;;;;27.52;37.18;101465.78;10455426;28;20049;-74
2022/07/01 16:42:17;;;;;;;4.20;3.30;;;;;;;27.51;37.36;101456.53;10434530;28;20373;-74
2022/07/01 16:47:26;;;;;;;3.23;2.93;;;;;;;27.49;36.99;101458.09;10430350;28;20061;-74
2022/07/01 16:52:41;;;;;;;5.15;3.30;;;;;;;27.45;36.30;101465.69;10447817;28;20049;-73
2022/07/01 16:57:46;;;;;;;3.40;3.10;;;;;;;27.44;35.82;101481.78;10448104;28;20044;-73
2022/07/01 17:02:53;;;;;;;2.53;2.33;;;;;;;27.37;35.36;101469.53;10430254;28;20037;-74
2022/07/01 17:07:58;;;;;;;2.92;2.58;;;;;;;27.33;34.74;101461.03;10429580;28;20382;-74
2022/07/01 17:13:02;;;;;;;3.15;2.80;;;;;;;27.31;34.53;101463.41;10485324;28;20056;-73
2022/07/01 17:18:05;;;;;;;2.47;2.28;;;;;;;27.29;34.19;101472.25;10466834;28;20037;-73
2022/07/01 17:23:24;;;;;;;2.70;2.00;;;;;;;27.19;32.89;101486.13;10471733;28;20060;-75
2022/07/01 17:28:35;;;;;;;2.33;2.08;;;;;;;27.09;31.91;101469.84;10483221;28;20049;-74
2022/07/01 17:33:40;;;;;;;1.30;1.20;;;;;;;26.99;28.59;101471.25;10479566;28;20053;-74
2022/07/01 17:38:45;;;;;;;1.35;1.25;;;;;;;26.87;27.32;101475.03;10463905;28;20033;-74
2022/07/01 17:43:54;;;;;;;1.52;1.25;;;;;;;26.79;27.13;101469.63;10469106;28;20056;-75
2022/07/01 17:48:56;;;;;;;2.42;1.75;;;;;;;26.74;28.27;101467.94;10479504;28;20596;-75
2022/07/01 17:54:00;;;;;;;2.22;1.80;;;;;;;26.71;28.75;101474.28;10473741;28;20053;-76
2022/07/01 17:59:04;;;;;;;4.45;1.85;;;;;;;26.68;29.68;101467.41;10483027;28;20045;-79
2022/07/01 18:04:07;;;;;;;6.32;2.03;;;;;;;26.58;31.19;101462.38;10476045;28;20143;-79
2022/07/01 18:09:11;;;;;;;3.08;2.30;;;;;;;26.50;32.69;101457.78;10462135;28;20045;-77
2022/07/01 18:15:05;;;;;;;4.07;2.10;;;;;;;26.38;33.15;101460.72;10482545;28;20049;-81
2022/07/01 18:20:32;;;;;;;3.05;2.03;;;;;;;26.26;34.81;101472.09;10455847;28;20521;-82
2022/07/01 18:25:35;;;;;;;;;;;;;;;26.14;35.48;101465.41;10483888;28;20051;-80
2022/07/01 18:30:39;;;;;;;2.25;1.95;;;;;;;26.03;35.16;101469.16;10465643;28;19925;-78
2022/07/01 18:35:42;;;;;;;2.65;2.17;;;;;;;25.94;35.95;101475.00;10459726;28;20049;-78
2022/07/01 18:40:44;;;;;;;2.38;2.17;;;;;;;25.83;35.80;101482.34;10470402;28;20041;-77
2022/07/01 18:45:46;;;;;;;3.35;1.75;;;;;;;25.73;35.01;101483.72;10470799;28;20041;-77
2022/07/01 18:50:49;;;;;;;2.72;1.90;;;;;;;25.65;34.72;101489.50;10476173;28;20037;-77
2022/07/01 18:55:51;;;;;;;2.15;1.95;;;;;;;25.60;35.94;101498.19;10492717;28;20052;-77
2022/07/01 19:00:53;;;;;;;2.13;1.92;;;;;;;25.55;35.32;101488.06;10471254;28;20042;-80
2022/07/01 19:05:55;;;;;;;2.35;1.92;;;;;;;25.46;35.54;101496.66;10459945;28;20065;-79
2022/07/01 19:10:57;;;;;;;2.05;1.73;;;;;;;25.40;36.20;101503.72;10481543;28;20087;-78
2022/07/01 19:16:00;;;;;;;4.38;2.55;;;;;;;25.36;35.84;101497.19;10479204;28;20504;-82
2022/07/01 19:21:04;;;;;;;2.22;2.05;;;;;;;25.30;37.00;101497.81;10470765;28;20437;-79
2022/07/01 19:26:06;;;;;;;2.90;2.30;;;;;;;25.25;36.56;101494.09;10474152;28;20049;-77
2022/07/01 19:31:08;;;;;;;3.72;2.35;;;;;;;25.23;37.25;101504.06;10461717;28;20049;-82
2022/07/01 19:36:10;;;;;;;2.65;2.20;;;;;;;25.19;37.79;101515.22;10479844;28;20048;-81
2022/07/01 19:41:13;;;;;;;2.90;2.08;;;;;;;25.16;38.06;101507.47;10470174;28;20052;-80
2022/07/01 19:46:15;;;;;;;9.23;3.30;;;;;;;25.08;38.03;101502.84;10489288;28;20091;-85
2022/07/01 19:51:19;;;;;;;5.18;2.67;;;;;;;25.04;38.01;101504.75;10474891;28;20041;-84
2022/07/01 19:56:21;;;;;;;4.80;3.22;;;;;;;24.98;38.17;101506.13;10486164;28;20412;-78
2022/07/01 20:01:24;;;;;;;6.22;2.72;;;;;;;24.88;39.07;101498.25;10489463;28;20048;-80
2022/07/01 20:06:29;;;;;;;5.45;2.63;;;;;;;24.81;39.81;101496.03;10473756;28;20029;-79
2022/07/01 20:11:32;;;;;;;4.88;2.78;;;;;;;24.70;40.19;101497.72;10476743;28;20049;-82
2022/07/01 20:16:35;;;;;;;4.43;2.55;;;;;;;24.58;40.84;101492.97;10480672;28;20067;-83
2022/07/01 20:21:38;;;;;;;5.13;2.50;;;;;;;24.49;41.04;101505.53;10464713;28;20050;-80
2022/07/01 20:26:40;;;;;;;3.35;2.65;;;;;;;24.42;41.33;101508.09;10459170;28;20033;-80
2022/07/01 20:31:49;;;;;;;4.28;3.30;;;;;;;24.37;41.72;101509.16;10469646;28;20119;-82
2022/07/01 20:36:51;;;;;;;4.10;3.17;;;;;;;24.29;41.39;101516.53;10456968;28;20048;-79
2022/07/01 20:41:54;;;;;;;6.22;3.45;;;;;;;24.24;41.92;101516.75;10448420;28;20042;-84
2022/07/01 20:46:56;;;;;;;4.85;2.95;;;;;;;24.23;42.36;101506.69;10471837;28;20028;-80
2022/07/01 20:51:58;;;;;;;4.88;2.72;;;;;;;24.25;42.17;101514.75;10468439;28;20061;-79
2022/07/01 20:57:00;;;;;;;6.93;2.92;;;;;;;24.17;41.58;101518.50;10487910;28;20059;-77
2022/07/01 21:02:04;;;;;;;3.53;2.60;;;;;;;24.05;41.93;101513.72;10463034;28;20523;-78
2022/07/01 21:07:07;;;;;;;4.43;2.83;;;;;;;23.89;42.53;101518.41;10473060;28;20057;-79
2022/07/01 21:12:15;;;;;;;3.85;3.30;;;;;;;23.75;42.38;101519.56;10482377;28;20051;-79
2022/07/01 21:17:18;;;;;;;3.80;2.58;;;;;;;23.65;43.02;101530.44;10461556;28;20060;-80
2022/07/01 21:22:20;;;;;;;3.42;2.58;;;;;;;23.53;43.05;101527.56;10462963;28;20048;-79
2022/07/01 21:27:22;;;;;;;5.05;3.53;;;;;;;23.46;43.33;101519.75;10472826;28;20515;-87
2022/07/01 21:32:25;;;;;;;3.67;2.90;;;;;;;23.36;43.60;101528.56;10470000;28;20050;-86
2022/07/01 21:37:27;;;;;;;8.18;3.30;;;;;;;23.28;44.66;101537.91;10467479;28;20044;-79
2022/07/01 21:42:29;;;;;;;5.15;2.90;;;;;;;23.17;44.70;101531.91;10460772;28;20053;-82
2022/07/01 21:47:34;;;;;;;3.40;2.80;;;;;;;23.08;44.95;101536.75;10480542;28;20056;-80
2022/07/01 21:52:38;;;;;;;3.13;2.63;;;;;;;22.99;45.63;101541.63;10476623;28;20052;-78
2022/07/01 21:57:43;;;;;;;7.13;3.20;;;;;;;22.91;45.52;101543.38;10465088;28;20044;-79
2022/07/01 22:02:45;;;;;;;3.10;2.58;;;;;;;22.83;46.27;101545.06;10479669;28;20068;-80
2022/07/01 22:07:48;;;;;;;3.63;2.70;;;;;;;22.76;46.78;101544.78;10471204;28;20587;-80
2022/07/01 22:12:54;;;;;;;2.97;2.38;;;;;;;22.68;47.93;101545.66;10473985;28;20059;-76
2022/07/01 22:17:58;;;;;;;4.45;2.63;;;;;;;22.58;48.83;101553.66;10473483;28;20056;-84
2022/07/01 22:23:00;;;;;;;3.67;2.90;;;;;;;22.49;49.05;101557.31;10471871;28;20534;-83
2022/07/01 22:28:03;;;;;;;3.95;3.03;;;;;;;22.42;49.38;101564.59;10482987;28;20049;-84
2022/07/01 22:33:07;;;;;;;4.63;3.15;;;;;;;22.34;49.72;101571.88;10455507;28;20048;-83
2022/07/01 22:38:09;;;;;;;3.97;3.10;;;;;;;22.30;50.25;101568.13;10470406;28;20047;-82
2022/07/01 22:43:15;;;;;;;5.07;2.83;;;;;;;22.24;50.41;101573.09;10443960;28;20437;-82
2022/07/01 22:48:40;;;;;;;5.68;3.17;;;;;;;22.18;50.78;101573.63;10477539;28;20056;-82
2022/07/01 22:53:43;;;;;;;4.15;3.00;;;;;;;22.11;50.69;101581.72;10487608;28;20057;-82
2022/07/01 22:59:05;;;;;;;4.60;2.88;;;;;;;22.02;51.46;101575.31;10487966;28;20055;-82
2022/07/01 23:04:09;;;;;;;6.53;3.25;;;;;;;21.96;51.93;101569.91;10485926;28;20373;-83
2022/07/01 23:09:13;;;;;;;5.40;3.65;;;;;;;21.89;52.08;101583.59;10479423;28;20526;-83
2022/07/01 23:19:44;;;;;;;4.47;3.33;;;;;;;21.74;53.64;101586.94;10469828;28;20037;-83
2022/07/01 23:24:48;;;;;;;4.80;3.45;;;;;;;21.67;53.48;101590.22;10451540;28;20041;-82
2022/07/01 23:29:52;;;;;;;5.43;3.58;;;;;;;21.60;53.79;101589.94;10468092;28;20099;-82
2022/07/01 23:34:56;;;;;;;4.53;3.72;;;;;;;21.55;53.76;101589.31;10444744;28;20060;-82
2022/07/01 23:39:59;;;;;;;6.03;3.58;;;;;;;21.53;54.50;101581.25;10483896;28;20056;-82